Peary Spirit — C6YM3 — position and weather

sailwx.info

Track history (hours):
 
Tides and Currents Weather Stations Pressure Air Temp Water Temp Dewpoint Dewpoint Depression Visibility Wind Speed Wind Dir Waves Ship Positions

Peary Spirit

Last reported at 2016-Dec-08 12:32 UTC. Time now 2016-Dec-09 02:05 UTC.
Position N 54°43' E 006°15'.

Length 249 m; draft 13.8 m.

Type: Tanker. MMSI: 311027600.

Date/timePositionNaut miles runAvg speedWind from/ knotsBaromVisibWave heightAir tempDewpointWater temp
2016-Dec-08 12:32N 54°43' E 006°15'1212.1
2016-Dec-08 11:33N 54°55' E 006°12'1312.5
2016-Dec-08 10:32N 55°07' E 006°04'  
2016-Dec-04 14:33N 55°44' E 000°17'6310.4
2016-Dec-04 08:30N 54°41' E 000°20'1110.9
2016-Dec-04 07:32N 54°30' E 000°21'1110.9
2016-Dec-04 06:33N 54°20' E 000°20'1111.4
2016-Dec-04 05:33N 54°08' E 000°20'3310.1
2016-Dec-04 02:21N 53°36' E 000°20'8 9.5
2016-Dec-04 01:34N 53°32' E 000°08'1 0.7
2016-Dec-04 00:27N 53°32' E 000°07'0 0.0
2016-Dec-03 23:12N 53°32' E 000°07'0 0.0
2016-Dec-03 22:33N 53°32' E 000°07'0 0.0
2016-Dec-03 13:24N 53°32' E 000°07'0 0.0
2016-Dec-03 10:24N 53°32' E 000°07'0 0.1
2016-Dec-03 09:33N 53°32' E 000°07'0 0.0
2016-Dec-03 01:24N 53°32' E 000°07'0 0.0
2016-Dec-02 21:27N 53°32' E 000°07'0 0.0
2016-Dec-02 20:30N 53°32' E 000°07'0 0.2
2016-Dec-02 19:33N 53°32' E 000°07'5 5.2
2016-Dec-02 18:33N 53°34' E 000°16'  
2016-Nov-30 05:08N 54°01' E 000°20'912.1
2016-Nov-30 04:24N 54°10' E 000°20'1012.4
2016-Nov-30 03:34N 54°20' E 000°19'1312.5
2016-Nov-30 02:34N 54°33' E 000°18'1212.1
2016-Nov-30 01:33N 54°45' E 000°18'  
Track history (hours):
 
Tides and Currents Weather Stations Pressure Air Temp Water Temp Dewpoint Dewpoint Depression Visibility Wind Speed Wind Dir Waves Ship Positions

Peary Spirit

Last reported at 2016-Dec-08 12:32 UTC. Time now 2016-Dec-09 02:05 UTC.
Position N 54°43' E 006°15'.

Length 249 m; draft 13.8 m.

Type: Tanker. MMSI: 311027600.

Date/timePositionNaut miles runAvg speedWind from/ knotsBaromVisibWave heightAir tempDewpointWater temp
2016-Dec-08 12:32N 54°43' E 006°15'1212.1
2016-Dec-08 11:33N 54°55' E 006°12'1312.5
2016-Dec-08 10:32N 55°07' E 006°04'  
2016-Dec-04 14:33N 55°44' E 000°17'6310.4
2016-Dec-04 08:30N 54°41' E 000°20'1110.9
2016-Dec-04 07:32N 54°30' E 000°21'1110.9
2016-Dec-04 06:33N 54°20' E 000°20'1111.4
2016-Dec-04 05:33N 54°08' E 000°20'3310.1
2016-Dec-04 02:21N 53°36' E 000°20'8 9.5
2016-Dec-04 01:34N 53°32' E 000°08'1 0.7
2016-Dec-04 00:27N 53°32' E 000°07'0 0.0
2016-Dec-03 23:12N 53°32' E 000°07'0 0.0
2016-Dec-03 22:33N 53°32' E 000°07'0 0.0
2016-Dec-03 13:24N 53°32' E 000°07'0 0.0
2016-Dec-03 10:24N 53°32' E 000°07'0 0.1
2016-Dec-03 09:33N 53°32' E 000°07'0 0.0
2016-Dec-03 01:24N 53°32' E 000°07'0 0.0
2016-Dec-02 21:27N 53°32' E 000°07'0 0.0
2016-Dec-02 20:30N 53°32' E 000°07'0 0.2
2016-Dec-02 19:33N 53°32' E 000°07'5 5.2
2016-Dec-02 18:33N 53°34' E 000°16'  
2016-Nov-30 05:08N 54°01' E 000°20'912.1
2016-Nov-30 04:24N 54°10' E 000°20'1012.4
2016-Nov-30 03:34N 54°20' E 000°19'1312.5
2016-Nov-30 02:34N 54°33' E 000°18'1212.1
2016-Nov-30 01:33N 54°45' E 000°18'  

Dump ship's entire track history